createdAt,value
2019-04-11T00:02:16.430Z,2.10
2019-04-11T00:04:46.323Z,1.80
2019-04-11T00:07:18.212Z,1.80
2019-04-11T00:09:47.944Z,1.80
2019-04-11T00:12:18.980Z,1.80
2019-04-11T00:14:48.458Z,2.00
2019-04-11T00:17:17.804Z,1.50
2019-04-11T00:19:48.767Z,1.67
2019-04-11T00:22:23.558Z,1.70
2019-04-11T00:24:53.387Z,1.97
2019-04-11T00:27:24.883Z,1.97
2019-04-11T00:29:55.514Z,2.00
2019-04-11T00:32:29.572Z,1.60
2019-04-11T00:34:59.444Z,1.87
2019-04-11T00:37:37.006Z,1.60
2019-04-11T00:40:07.328Z,1.80
2019-04-11T00:42:36.818Z,1.60
2019-04-11T00:45:07.453Z,2.10
2019-04-11T00:47:38.162Z,1.63
2019-04-11T00:50:10.613Z,1.93
2019-04-11T00:52:42.429Z,1.90
2019-04-11T00:55:15.700Z,1.67
2019-04-11T00:57:45.370Z,1.83
2019-04-11T01:00:16.517Z,1.87
2019-04-11T01:02:46.073Z,1.93
2019-04-11T01:05:17.176Z,1.63
2019-04-11T01:07:47.258Z,1.90
2019-04-11T01:10:20.259Z,2.27
2019-04-11T01:12:51.199Z,2.03
2019-04-11T01:15:23.902Z,1.93
2019-04-11T01:17:54.563Z,2.10
2019-04-11T01:20:23.941Z,1.87
2019-04-11T01:22:54.248Z,2.10
2019-04-11T01:25:26.366Z,2.07
2019-04-11T01:27:56.442Z,1.90
2019-04-11T01:30:36.682Z,1.70
2019-04-11T01:33:07.968Z,2.10
2019-04-11T01:35:37.480Z,2.57
2019-04-11T01:38:06.944Z,2.00
2019-04-11T01:40:36.297Z,2.13
2019-04-11T01:43:08.410Z,2.03
2019-04-11T01:45:37.903Z,2.00
2019-04-11T01:48:33.350Z,2.30
2019-04-11T01:51:03.462Z,1.93
2019-04-11T01:53:35.290Z,2.07
2019-04-11T01:56:05.352Z,1.90
2019-04-11T01:58:35.101Z,2.00
2019-04-11T02:01:16.866Z,2.00
2019-04-11T02:03:59.390Z,1.73
2019-04-11T02:06:31.932Z,2.40
2019-04-11T02:09:06.037Z,2.00
2019-04-11T02:11:37.360Z,2.00
2019-04-11T02:14:15.610Z,2.10
2019-04-11T02:16:39.473Z,2.03
2019-04-11T02:19:10.364Z,1.80
2019-04-11T02:21:40.064Z,2.17
2019-04-11T02:24:23.649Z,2.13
2019-04-11T02:27:24.803Z,2.00
2019-04-11T02:29:58.577Z,2.03
2019-04-11T02:32:29.393Z,1.90
2019-04-11T02:35:02.474Z,2.17
2019-04-11T02:37:32.075Z,2.50
2019-04-11T02:40:03.217Z,2.10
2019-04-11T02:42:35.077Z,2.23
2019-04-11T02:45:23.114Z,2.00
2019-04-11T02:47:44.583Z,2.10
2019-04-11T02:50:19.175Z,2.20
2019-04-11T02:52:49.587Z,2.10
2019-04-11T02:55:23.364Z,2.30
2019-04-11T02:57:54.323Z,2.40
2019-04-11T03:00:26.759Z,2.00
2019-04-11T03:03:01.560Z,2.23
2019-04-11T03:05:34.496Z,2.53
2019-04-11T03:08:07.956Z,2.23
2019-04-11T03:10:36.079Z,2.23
2019-04-11T03:13:05.664Z,2.00
2019-04-11T03:15:48.917Z,2.03
2019-04-11T03:18:14.196Z,2.60
2019-04-11T03:20:48.432Z,2.60
2019-04-11T03:23:16.495Z,2.23
2019-04-11T03:25:48.927Z,2.77
2019-04-11T03:28:23.795Z,2.53
2019-04-11T03:31:30.371Z,2.40
2019-04-11T03:39:01.789Z,3.07
2019-04-11T03:41:27.022Z,2.60
2019-04-11T03:43:58.113Z,2.90
2019-04-11T03:46:34.028Z,3.07
2019-04-11T03:49:00.187Z,2.27
2019-04-11T03:51:27.638Z,3.00
2019-04-11T03:53:58.890Z,2.87
2019-04-11T03:56:29.747Z,3.00
2019-04-11T03:59:01.399Z,2.80
2019-04-11T04:01:34.076Z,2.87
2019-04-11T04:04:06.719Z,2.80
2019-04-11T04:06:37.401Z,3.10
2019-04-11T04:09:10.815Z,3.10
2019-04-11T04:11:45.048Z,3.37
2019-04-11T04:14:34.346Z,3.10
2019-04-11T04:17:30.661Z,2.90
2019-04-11T04:20:22.548Z,3.27
2019-04-11T04:23:05.255Z,2.93
2019-04-11T04:25:42.719Z,3.13
2019-04-11T04:28:13.648Z,3.03
2019-04-11T04:30:44.670Z,3.60
2019-04-11T04:33:17.075Z,2.97
2019-04-11T04:35:47.648Z,3.00
2019-04-11T04:38:18.904Z,3.30
2019-04-11T04:41:05.976Z,3.30
2019-04-11T04:43:22.612Z,3.57
2019-04-11T04:46:08.509Z,3.50
2019-04-11T04:48:26.753Z,3.50
2019-04-11T04:50:56.985Z,2.90
2019-04-11T04:53:28.122Z,3.63
2019-04-11T04:56:03.203Z,3.50
2019-04-11T04:58:33.912Z,3.47
2019-04-11T05:01:06.203Z,3.10
2019-04-11T05:03:34.817Z,3.57
2019-04-11T05:06:04.357Z,3.77
2019-04-11T05:08:35.299Z,3.40
2019-04-11T05:11:05.131Z,3.20
2019-04-11T05:13:34.753Z,3.40
2019-04-11T05:16:17.126Z,3.43
2019-04-11T05:18:45.017Z,3.43
2019-04-11T05:21:14.640Z,3.50
2019-04-11T05:23:46.682Z,3.60
2019-04-11T05:26:17.306Z,3.33
2019-04-11T05:28:49.421Z,3.80
2019-04-11T05:31:19.129Z,3.00
2019-04-11T05:33:49.492Z,3.53
2019-04-11T05:36:24.778Z,3.50
2019-04-11T05:38:58.340Z,4.20
2019-04-11T05:41:27.782Z,3.40
2019-04-11T05:44:00.787Z,3.60
2019-04-11T05:46:35.279Z,3.50
2019-04-11T05:49:17.020Z,3.50
2019-04-11T05:52:00.412Z,3.77
2019-04-11T05:54:36.460Z,3.47
2019-04-11T05:57:05.537Z,3.50
2019-04-11T05:59:34.902Z,3.73
2019-04-11T06:02:15.040Z,3.37
2019-04-11T06:05:02.735Z,3.57
2019-04-11T06:07:48.557Z,3.47
2019-04-11T06:10:26.372Z,3.53
2019-04-11T06:13:16.567Z,3.63
2019-04-11T06:15:49.178Z,3.40
2019-04-11T06:18:41.846Z,3.53
2019-04-11T06:21:14.158Z,3.70
2019-04-11T06:24:08.271Z,3.60
2019-04-11T06:26:56.678Z,3.80
2019-04-11T06:29:57.785Z,3.40
2019-04-11T06:32:49.650Z,3.90
2019-04-11T06:35:40.925Z,3.57
2019-04-11T06:38:47.208Z,3.80
2019-04-11T06:41:28.615Z,3.50
2019-04-11T06:44:16.376Z,3.50
2019-04-11T06:47:14.108Z,3.03
2019-04-11T06:50:10.980Z,3.33
2019-04-11T06:52:41.282Z,3.80
2019-04-11T06:55:18.600Z,3.77
2019-04-11T06:57:48.477Z,3.40
2019-04-11T07:00:18.925Z,3.87
2019-04-11T07:02:55.074Z,3.40
2019-04-11T07:05:26.759Z,3.40
2019-04-11T07:07:59.924Z,3.60
2019-04-11T07:10:36.244Z,3.50
2019-04-11T07:13:28.311Z,4.00
2019-04-11T07:15:58.551Z,3.70
2019-04-11T07:18:56.949Z,4.10
2019-04-11T07:21:33.274Z,3.00
2019-04-11T07:24:22.382Z,3.37
2019-04-11T07:26:58.830Z,3.57
2019-04-11T07:29:48.481Z,3.60
2019-04-11T07:32:20.188Z,5.27
2019-04-11T07:35:33.600Z,3.67
2019-04-11T07:38:03.331Z,3.77
2019-04-11T07:40:51.962Z,3.93
2019-04-11T07:43:36.916Z,4.00
2019-04-11T07:46:26.875Z,3.60
2019-04-11T07:49:08.396Z,4.00
2019-04-11T07:52:00.346Z,4.57
2019-04-11T07:54:30.340Z,4.00
2019-04-11T07:57:11.435Z,4.33
2019-04-11T08:00:09.474Z,3.73
2019-04-11T08:02:57.422Z,3.43
2019-04-11T08:05:58.756Z,3.33
2019-04-11T08:08:45.164Z,3.43
2019-04-11T08:11:38.002Z,4.13
2019-04-11T08:14:44.324Z,3.43
2019-04-11T08:17:28.180Z,3.23
2019-04-11T08:20:08.100Z,3.47
2019-04-11T08:22:47.507Z,3.63
2019-04-11T08:25:35.519Z,3.57
2019-04-11T08:28:12.404Z,3.80
2019-04-11T08:31:08.756Z,3.73
2019-04-11T08:33:40.663Z,3.80
2019-04-11T08:36:30.051Z,3.63
2019-04-11T08:39:01.796Z,3.47
2019-04-11T08:41:49.669Z,3.57
2019-04-11T08:44:23.790Z,3.97
2019-04-11T08:47:02.542Z,3.90
2019-04-11T08:49:42.781Z,4.03
2019-04-11T08:52:33.319Z,4.07
2019-04-11T08:55:19.027Z,4.23
2019-04-11T08:57:51.980Z,3.80
2019-04-11T09:00:40.179Z,4.30
2019-04-11T09:03:17.677Z,4.00
2019-04-11T09:06:04.306Z,4.40
2019-04-11T09:08:59.019Z,4.17
2019-04-11T09:11:44.896Z,4.23
2019-04-11T09:14:32.486Z,4.17
2019-04-11T09:17:30.404Z,4.00
2019-04-11T09:20:23.382Z,4.13
2019-04-11T09:22:59.518Z,4.07
2019-04-11T09:25:55.344Z,4.27
2019-04-11T09:28:50.043Z,4.03
2019-04-11T09:31:41.910Z,4.27
2019-04-11T09:34:50.165Z,4.47
2019-04-11T09:37:37.809Z,4.37
2019-04-11T09:40:28.041Z,4.27
2019-04-11T09:43:15.798Z,4.53
2019-04-11T09:46:16.508Z,4.03
2019-04-11T09:49:06.682Z,3.70
2019-04-11T09:51:42.729Z,3.93
2019-04-11T09:54:45.620Z,4.10
2019-04-11T09:57:44.217Z,3.83
2019-04-11T10:00:47.606Z,3.90
2019-04-11T10:03:25.858Z,3.33
2019-04-11T10:06:19.445Z,4.33
2019-04-11T10:09:06.450Z,3.60
2019-04-11T10:11:55.068Z,3.57
2019-04-11T10:14:27.055Z,3.33
2019-04-11T10:17:14.847Z,3.07
2019-04-11T10:19:49.438Z,3.07
2019-04-11T10:22:44.202Z,2.97
2019-04-11T10:25:28.267Z,3.50
2019-04-11T10:28:33.447Z,3.20
2019-04-11T10:31:20.528Z,3.30
2019-04-11T10:34:11.251Z,3.50
2019-04-11T10:36:55.748Z,3.43
2019-04-11T10:39:47.474Z,3.20
2019-04-11T10:42:18.055Z,3.23
2019-04-11T10:45:12.607Z,3.23
2019-04-11T10:47:42.064Z,2.87
2019-04-11T10:50:36.763Z,3.27
2019-04-11T10:53:08.863Z,3.27
2019-04-11T10:58:37.167Z,3.27
2019-04-11T11:01:25.563Z,3.30
2019-04-11T11:04:14.386Z,3.17
2019-04-11T11:06:45.108Z,3.37
2019-04-11T11:09:26.272Z,3.30
2019-04-11T11:12:17.478Z,3.00
2019-04-11T11:15:18.086Z,2.80
2019-04-11T11:18:43.937Z,2.87
2019-04-11T11:20:55.018Z,2.90
2019-04-11T11:23:40.847Z,2.83
2019-04-11T11:26:33.750Z,2.50
2019-04-11T11:29:20.987Z,2.77
2019-04-11T11:32:00.720Z,3.27
2019-04-11T11:34:36.772Z,3.10
2019-04-11T11:37:37.557Z,3.03
2019-04-11T11:40:25.896Z,3.37
2019-04-11T11:43:30.789Z,3.70
2019-04-11T11:46:26.764Z,3.27
2019-04-11T11:49:02.725Z,3.20
2019-04-11T11:51:37.473Z,3.40
2019-04-11T11:54:19.691Z,3.40
2019-04-11T11:56:49.175Z,3.43
2019-04-11T11:59:36.458Z,3.63
2019-04-11T12:02:15.639Z,3.20
2019-04-11T12:05:18.529Z,4.03
2019-04-11T12:07:56.540Z,3.30
2019-04-11T12:10:35.515Z,3.10
2019-04-11T12:13:24.096Z,3.20
2019-04-11T12:16:16.011Z,2.67
2019-04-11T12:18:58.465Z,2.80
2019-04-11T12:21:31.453Z,3.03
2019-04-11T12:24:19.937Z,3.23
2019-04-11T12:26:57.335Z,2.97
2019-04-11T12:29:48.855Z,3.27
2019-04-11T12:32:20.257Z,3.27
2019-04-11T12:35:17.855Z,3.13
2019-04-11T12:37:53.324Z,2.80
2019-04-11T12:40:56.772Z,3.27
2019-04-11T12:43:34.133Z,3.80
2019-04-11T12:46:29.563Z,3.43
2019-04-11T12:48:52.172Z,3.50
2019-04-11T12:51:46.423Z,3.17
2019-04-11T12:54:22.755Z,3.13
2019-04-11T12:57:19.833Z,3.33
2019-04-11T12:59:50.817Z,3.50
2019-04-11T13:02:54.005Z,3.07
2019-04-11T13:05:23.667Z,3.40
2019-04-11T13:08:23.897Z,3.30
2019-04-11T13:10:53.332Z,2.60
2019-04-11T13:13:28.669Z,2.87
2019-04-11T13:16:11.831Z,2.33
2019-04-11T13:19:02.760Z,2.70
2019-04-11T13:21:40.009Z,2.50
2019-04-11T13:24:28.208Z,2.47
2019-04-11T13:27:14.676Z,2.90
2019-04-11T13:30:02.967Z,2.30
2019-04-11T13:32:54.588Z,2.30
2019-04-11T13:35:40.225Z,2.30
2019-04-11T13:38:34.603Z,2.70
2019-04-11T13:41:22.829Z,2.73
2019-04-11T13:44:11.241Z,2.10
2019-04-11T13:46:59.466Z,2.43
2019-04-11T13:49:46.417Z,2.10
2019-04-11T13:52:34.658Z,2.50
2019-04-11T13:55:10.526Z,2.40
2019-04-11T13:58:00.098Z,2.60
2019-04-11T14:00:50.046Z,2.30
2019-04-11T14:03:45.348Z,2.60
2019-04-11T14:06:24.857Z,2.43
2019-04-11T14:09:23.026Z,2.70
2019-04-11T14:12:04.735Z,2.40
2019-04-11T14:14:59.672Z,2.57
2019-04-11T14:17:51.071Z,2.47
2019-04-11T14:20:29.737Z,2.83
2019-04-11T14:23:16.273Z,2.63
2019-04-11T14:26:14.150Z,2.73
2019-04-11T14:28:53.275Z,2.40
2019-04-11T14:31:40.802Z,2.63
2019-04-11T14:34:32.357Z,2.23
2019-04-11T14:37:09.007Z,2.70
2019-04-11T14:39:40.654Z,2.40
2019-04-11T14:42:22.396Z,2.33
2019-04-11T14:44:52.638Z,2.63
2019-04-11T14:47:47.084Z,2.30
2019-04-11T14:50:17.469Z,2.43
2019-04-11T14:52:54.802Z,2.33
2019-04-11T14:55:25.754Z,2.93
2019-04-11T14:58:23.582Z,2.57
2019-04-11T15:00:53.715Z,2.50
2019-04-11T15:03:47.559Z,2.53
2019-04-11T15:06:38.900Z,2.30
2019-04-11T15:09:25.379Z,2.20
2019-04-11T15:11:57.929Z,2.20
2019-04-11T15:14:52.091Z,2.87
2019-04-11T15:17:32.751Z,2.30
2019-04-11T15:20:19.433Z,2.60
2019-04-11T15:22:55.691Z,2.40
2019-04-11T15:25:43.891Z,2.20
2019-04-11T15:28:29.440Z,2.57
2019-04-11T15:31:02.581Z,2.50
2019-04-11T15:34:03.343Z,2.30
2019-04-11T15:36:32.638Z,2.40
2019-04-11T15:39:44.394Z,2.63
2019-04-11T15:42:10.004Z,3.00
2019-04-11T15:45:05.113Z,3.00
2019-04-11T15:47:34.355Z,3.57
2019-04-11T15:50:21.404Z,2.80
2019-04-11T15:52:54.525Z,2.50
2019-04-11T15:55:58.074Z,2.70
2019-04-11T15:58:32.393Z,2.93
2019-04-11T16:01:23.674Z,2.70
2019-04-11T16:03:56.649Z,2.80
2019-04-11T16:06:47.909Z,2.90
2019-04-11T16:09:19.514Z,2.53
2019-04-11T16:12:07.936Z,3.13
2019-04-11T16:14:38.926Z,3.10
2019-04-11T16:17:36.140Z,2.80
2019-04-11T16:20:18.263Z,2.47
2019-04-11T16:23:09.218Z,3.40
2019-04-11T16:25:38.886Z,3.10
2019-04-11T16:28:27.416Z,3.40
2019-04-11T16:30:58.565Z,3.13
2019-04-11T16:33:46.160Z,2.90
2019-04-11T16:36:40.937Z,2.53
2019-04-11T16:39:44.795Z,2.67
2019-04-11T16:42:15.480Z,2.60
2019-04-11T16:44:59.725Z,2.33
2019-04-11T16:47:48.966Z,3.07
2019-04-11T16:50:18.290Z,3.20
2019-04-11T16:52:47.587Z,3.10
2019-04-11T16:55:16.920Z,2.70
2019-04-11T16:57:46.242Z,2.50
2019-04-11T17:00:20.256Z,2.90
2019-04-11T17:02:47.310Z,3.17
2019-04-11T17:05:17.029Z,3.63
2019-04-11T17:08:11.485Z,3.27
2019-04-11T17:10:58.629Z,2.77
2019-04-11T17:13:28.484Z,3.20
2019-04-11T17:16:00.104Z,3.10
2019-04-11T17:18:29.278Z,3.20
2019-04-11T17:20:58.589Z,2.83
2019-04-11T17:23:27.871Z,3.97
2019-04-11T17:25:57.226Z,4.20
2019-04-11T17:28:26.747Z,3.40
2019-04-11T17:30:56.108Z,3.37
2019-04-11T17:33:28.645Z,3.70
2019-04-11T17:35:56.688Z,3.30
2019-04-11T17:38:26.132Z,2.77
2019-04-11T17:40:55.408Z,3.13
2019-04-11T17:43:24.716Z,3.10
2019-04-11T17:45:56.972Z,3.07
2019-04-11T17:48:25.221Z,3.10
2019-04-11T17:50:54.456Z,3.07
2019-04-11T17:53:24.898Z,3.73
2019-04-11T17:55:55.024Z,3.37
2019-04-11T17:58:26.966Z,4.53
2019-04-11T18:01:00.275Z,3.73
2019-04-11T18:03:29.095Z,3.70
2019-04-11T18:05:58.523Z,4.63
2019-04-11T18:08:27.835Z,3.60
2019-04-11T18:10:57.153Z,3.63
2019-04-11T18:13:30.581Z,3.50
2019-04-11T18:16:00.935Z,3.40
2019-04-11T18:18:28.548Z,3.70
2019-04-11T18:20:58.061Z,3.73
2019-04-11T18:23:27.403Z,3.40
2019-04-11T18:25:56.840Z,3.20
2019-04-11T18:28:26.197Z,3.13
2019-04-11T18:30:55.468Z,3.20
2019-04-11T18:33:24.814Z,3.40
2019-04-11T18:35:54.080Z,3.40
2019-04-11T18:38:23.418Z,3.80
2019-04-11T18:40:52.789Z,3.37
2019-04-11T18:43:22.202Z,3.37
2019-04-11T18:45:51.487Z,3.43
2019-04-11T18:48:20.781Z,3.50
2019-04-11T18:50:50.837Z,3.83
2019-04-11T18:53:21.252Z,3.47
2019-04-11T18:55:50.569Z,3.73
2019-04-11T18:58:20.039Z,3.70
2019-04-11T19:00:49.493Z,3.23
2019-04-11T19:03:19.001Z,3.23
2019-04-11T19:05:48.463Z,3.43
2019-04-11T19:08:17.833Z,3.70
2019-04-11T19:10:47.228Z,3.07
2019-04-11T19:13:17.536Z,3.10
2019-04-11T19:15:46.908Z,3.80
2019-04-11T19:18:17.078Z,3.37
2019-04-11T19:20:49.963Z,3.20
2019-04-11T19:23:17.631Z,3.57
2019-04-11T19:25:46.997Z,3.33
2019-04-11T19:28:16.301Z,3.20
2019-04-11T19:30:45.910Z,3.20
2019-04-11T19:33:15.477Z,3.60
2019-04-11T19:35:44.779Z,3.33
2019-04-11T19:38:28.410Z,3.17
2019-04-11T19:40:57.666Z,3.20
2019-04-11T19:43:27.134Z,3.27
2019-04-11T19:45:58.691Z,3.27
2019-04-11T19:48:27.780Z,3.67
2019-04-11T19:50:58.870Z,3.30
2019-04-11T19:53:28.346Z,3.20
2019-04-11T19:56:17.625Z,3.60
2019-04-11T19:58:46.913Z,3.53
2019-04-11T20:01:16.149Z,3.03
2019-04-11T20:03:45.568Z,3.17
2019-04-11T20:06:14.897Z,3.33
2019-04-11T20:08:44.194Z,3.10
2019-04-11T20:11:13.721Z,3.30
2019-04-11T20:13:43.127Z,3.50
2019-04-11T20:16:13.228Z,3.77
2019-04-11T20:18:51.029Z,3.77
2019-04-11T20:21:13.732Z,3.63
2019-04-11T20:23:43.165Z,4.20
2019-04-11T20:26:12.422Z,3.83
2019-04-11T20:28:41.702Z,3.87
2019-04-11T20:31:11.080Z,3.97
2019-04-11T20:33:40.334Z,3.70
2019-04-11T20:36:11.151Z,3.67
2019-04-11T20:38:41.033Z,3.77
2019-04-11T20:41:10.380Z,3.90
2019-04-11T20:43:39.710Z,3.50
2019-04-11T20:46:09.269Z,4.00
2019-04-11T20:48:38.551Z,3.70
2019-04-11T20:51:07.820Z,3.83
2019-04-11T20:53:37.680Z,3.40
2019-04-11T20:56:09.703Z,3.43
2019-04-11T20:58:39.693Z,3.37
2019-04-11T21:01:09.442Z,3.50
2019-04-11T21:03:38.784Z,3.60
2019-04-11T21:06:08.286Z,3.63
2019-04-11T21:08:37.559Z,3.63
2019-04-11T21:11:06.801Z,3.73
2019-04-11T21:13:38.481Z,3.60
2019-04-11T21:16:07.269Z,3.13
2019-04-11T21:18:36.621Z,3.60
2019-04-11T21:21:06.200Z,3.57
2019-04-11T21:23:35.495Z,4.10
2019-04-11T21:26:04.834Z,3.90
2019-04-11T21:28:34.336Z,3.50
2019-04-11T21:31:03.583Z,3.40
2019-04-11T21:33:34.921Z,3.43
2019-04-11T21:36:04.086Z,3.20
2019-04-11T21:38:33.417Z,3.40
2019-04-11T21:41:05.882Z,3.37
2019-04-11T21:43:35.884Z,3.80
2019-04-11T21:46:07.026Z,3.33
2019-04-11T21:48:36.610Z,3.50
2019-04-11T21:51:05.998Z,3.03
2019-04-11T21:53:36.709Z,3.53
2019-04-11T21:56:06.806Z,3.67
2019-04-11T21:58:36.105Z,3.50
2019-04-11T22:01:10.418Z,3.33
2019-04-11T22:03:39.745Z,3.30
2019-04-11T22:06:09.114Z,3.03
2019-04-11T22:08:38.599Z,3.50
2019-04-11T22:11:10.114Z,3.37
2019-04-11T22:13:40.408Z,3.57
2019-04-11T22:16:13.465Z,3.37
2019-04-11T22:18:41.490Z,3.67
2019-04-11T22:21:12.997Z,3.70
2019-04-11T22:23:48.604Z,3.70
2019-04-11T22:26:13.002Z,4.00
2019-04-11T22:28:42.320Z,3.80
2019-04-11T22:31:11.601Z,3.17
2019-04-11T22:33:48.215Z,3.77
2019-04-11T22:36:17.576Z,4.00
2019-04-11T22:38:46.837Z,3.83
2019-04-11T22:41:16.197Z,4.33
2019-04-11T22:43:45.462Z,3.67
2019-04-11T22:46:20.569Z,3.40
2019-04-11T22:48:45.950Z,3.90
2019-04-11T22:51:15.302Z,4.13
2019-04-11T22:53:44.629Z,4.83
2019-04-11T22:56:14.070Z,4.83
2019-04-11T22:58:43.721Z,4.37
2019-04-11T23:01:13.942Z,4.80
2019-04-11T23:03:51.936Z,4.83
2019-04-11T23:06:21.169Z,4.30
2019-04-11T23:08:50.443Z,4.50
2019-04-11T23:11:19.948Z,4.50
2019-04-11T23:13:49.524Z,4.20
2019-04-11T23:16:19.767Z,4.17
2019-04-11T23:18:49.115Z,4.00
2019-04-11T23:21:18.550Z,4.30
2019-04-11T23:23:47.873Z,3.87
2019-04-11T23:26:17.719Z,3.60
2019-04-11T23:28:47.287Z,3.53
2019-04-11T23:31:19.751Z,3.07
2019-04-11T23:33:51.447Z,2.60
2019-04-11T23:36:21.299Z,3.03
2019-04-11T23:38:52.590Z,3.30
2019-04-11T23:41:21.800Z,3.00
2019-04-11T23:43:51.513Z,3.30
2019-04-11T23:46:21.478Z,3.63
2019-04-11T23:48:54.681Z,3.50
2019-04-11T23:51:25.469Z,3.33
2019-04-11T23:53:53.805Z,3.10
2019-04-11T23:56:23.456Z,3.03
2019-04-11T23:58:52.818Z,3.37
